createdAt,value
2023-01-21T00:00:16.299Z,-1.86
2023-01-21T00:02:43.422Z,-1.86
2023-01-21T00:05:10.253Z,-1.88
2023-01-21T00:07:37.192Z,-1.88
2023-01-21T00:10:04.227Z,-1.89
2023-01-21T00:12:31.100Z,-1.90
2023-01-21T00:14:57.988Z,-1.92
2023-01-21T00:17:24.889Z,-1.92
2023-01-21T00:19:51.750Z,-1.93
2023-01-21T00:22:18.722Z,-1.95
2023-01-21T00:24:45.628Z,-1.98
2023-01-21T00:27:12.438Z,-1.99
2023-01-21T00:29:39.284Z,-1.98
2023-01-21T00:32:06.087Z,-1.99
2023-01-21T00:34:32.954Z,-2.00
2023-01-21T00:36:59.812Z,-2.02
2023-01-21T00:39:26.738Z,-2.03
2023-01-21T00:41:53.650Z,-2.04
2023-01-21T00:44:20.548Z,-2.05
2023-01-21T00:46:47.343Z,-2.08
2023-01-21T00:49:14.192Z,-2.08
2023-01-21T00:51:41.086Z,-2.11
2023-01-21T00:54:07.974Z,-2.10
2023-01-21T00:56:34.808Z,-2.11
2023-01-21T00:59:01.786Z,-2.13
2023-01-21T01:01:30.599Z,-2.13
2023-01-21T01:03:57.549Z,-2.14
2023-01-21T01:06:24.733Z,-2.14
2023-01-21T01:08:52.246Z,-2.15
2023-01-21T01:11:21.775Z,-2.17
2023-01-21T01:13:48.619Z,-2.16
2023-01-21T01:16:16.622Z,-2.19
2023-01-21T01:18:43.974Z,-2.21
2023-01-21T01:21:13.536Z,-2.22
2023-01-21T01:23:40.781Z,-2.24
2023-01-21T01:26:10.562Z,-2.25
2023-01-21T01:28:37.440Z,-2.26
2023-01-21T01:31:06.851Z,-2.26
2023-01-21T01:33:34.200Z,-2.28
2023-01-21T01:36:10.901Z,-2.27
2023-01-21T01:38:37.755Z,-2.26
2023-01-21T01:41:05.065Z,-2.27
2023-01-21T01:43:53.833Z,-2.30
2023-01-21T01:46:21.573Z,-2.32
2023-01-21T01:49:22.024Z,-2.30
2023-01-21T01:51:54.785Z,-2.33
2023-01-21T01:54:31.948Z,-2.34
2023-01-21T01:57:02.576Z,-2.38
2023-01-21T01:59:31.191Z,-2.39
2023-01-21T02:02:00.848Z,-2.38
2023-01-21T02:04:33.690Z,-2.38
2023-01-21T02:07:00.874Z,-2.38
2023-01-21T02:09:30.849Z,-2.39
2023-01-21T02:12:01.499Z,-2.42
2023-01-21T02:14:30.706Z,-2.44
2023-01-21T02:17:12.114Z,-2.44
2023-01-21T02:19:44.701Z,-2.45
2023-01-21T02:22:30.475Z,-2.44
2023-01-21T02:25:03.237Z,-2.45
2023-01-21T02:27:36.244Z,-2.47
2023-01-21T02:30:24.658Z,-2.48
2023-01-21T02:33:13.762Z,-2.50
2023-01-21T02:35:48.456Z,-2.53
2023-01-21T02:38:32.586Z,-2.55
2023-01-21T02:41:18.152Z,-2.56
2023-01-21T02:44:13.526Z,-2.57
2023-01-21T02:46:45.107Z,-2.60
2023-01-21T02:49:20.934Z,-2.61
2023-01-21T02:51:48.697Z,-2.62
2023-01-21T02:54:41.613Z,-2.64
2023-01-21T02:57:14.372Z,-2.65
2023-01-21T02:59:47.458Z,-2.68
2023-01-21T03:02:43.690Z,-2.69
2023-01-21T03:05:45.004Z,-2.70
2023-01-21T03:08:18.777Z,-2.70
2023-01-21T03:10:55.351Z,-2.74
2023-01-21T03:13:52.779Z,-2.74
2023-01-21T03:16:43.629Z,-2.75
2023-01-21T03:19:14.698Z,-2.76
2023-01-21T03:21:42.332Z,-2.78
2023-01-21T03:24:11.326Z,-2.81
2023-01-21T03:26:52.715Z,-2.79
2023-01-21T03:29:26.479Z,-2.81
2023-01-21T03:31:58.286Z,-2.83
2023-01-21T03:34:30.765Z,-2.85
2023-01-21T03:37:10.111Z,-2.85
2023-01-21T03:39:59.128Z,-2.87
2023-01-21T03:42:27.353Z,-2.89
2023-01-21T03:44:54.797Z,-2.90
2023-01-21T03:47:28.903Z,-2.92
2023-01-21T03:50:04.658Z,-2.93
2023-01-21T03:52:32.137Z,-2.93
2023-01-21T03:54:59.432Z,-2.96
2023-01-21T03:57:26.262Z,-2.98
2023-01-21T03:59:53.811Z,-2.97
2023-01-21T04:02:21.217Z,-2.99
2023-01-21T04:04:48.386Z,-3.00
2023-01-21T04:07:16.050Z,-3.03
2023-01-21T04:09:42.970Z,-3.03
2023-01-21T04:12:10.837Z,-3.05
2023-01-21T04:14:38.198Z,-3.07
2023-01-21T04:17:05.306Z,-3.10
2023-01-21T04:19:32.256Z,-3.09
2023-01-21T04:21:59.488Z,-3.10
2023-01-21T04:24:26.411Z,-3.11
2023-01-21T04:26:53.333Z,-3.12
2023-01-21T04:29:20.831Z,-3.12
2023-01-21T04:31:48.482Z,-3.13
2023-01-21T04:34:16.861Z,-3.15
2023-01-21T04:36:43.834Z,-3.16
2023-01-21T04:39:11.645Z,-3.17
2023-01-21T04:41:38.460Z,-3.16
2023-01-21T04:44:05.578Z,-3.17
2023-01-21T04:46:32.471Z,-3.19
2023-01-21T04:48:59.517Z,-3.21
2023-01-21T04:51:26.352Z,-3.22
2023-01-21T04:53:53.200Z,-3.21
2023-01-21T04:56:20.054Z,-3.22
2023-01-21T04:58:46.829Z,-3.24
2023-01-21T05:01:13.815Z,-3.24
2023-01-21T05:03:40.732Z,-3.26
2023-01-21T05:06:07.673Z,-3.28
2023-01-21T05:08:34.534Z,-3.27
2023-01-21T05:11:01.388Z,-3.30
2023-01-21T05:13:28.407Z,-3.31
2023-01-21T05:15:55.270Z,-3.33
2023-01-21T05:18:22.221Z,-3.33
2023-01-21T05:20:49.015Z,-3.33
2023-01-21T05:23:15.917Z,-3.34
2023-01-21T05:25:42.846Z,-3.33
2023-01-21T05:28:09.697Z,-3.34
2023-01-21T05:30:39.200Z,-3.35
2023-01-21T05:33:07.258Z,-3.34
2023-01-21T05:35:35.155Z,-3.34
2023-01-21T05:38:01.999Z,-3.36
2023-01-21T05:40:28.997Z,-3.37
2023-01-21T05:42:55.725Z,-3.38
2023-01-21T05:45:22.803Z,-3.35
2023-01-21T05:47:49.707Z,-3.32
2023-01-21T05:50:16.873Z,-3.27
2023-01-21T05:52:43.857Z,-3.22
2023-01-21T05:55:13.393Z,-3.17
2023-01-21T05:57:40.242Z,-3.12
2023-01-21T06:00:07.904Z,-3.06
2023-01-21T06:02:34.739Z,-3.05
2023-01-21T06:05:01.544Z,-2.99
2023-01-21T06:07:28.435Z,-2.96
2023-01-21T06:09:55.268Z,-2.90
2023-01-21T06:12:23.879Z,-2.86
2023-01-21T06:14:51.683Z,-2.87
2023-01-21T06:17:18.551Z,-2.87
2023-01-21T06:19:45.409Z,-2.82
2023-01-21T06:22:15.782Z,-2.81
2023-01-21T06:24:45.407Z,-2.83
2023-01-21T06:27:12.760Z,-2.79
2023-01-21T06:29:39.677Z,-2.78
2023-01-21T06:32:06.797Z,-2.76
2023-01-21T06:34:33.766Z,-2.73
2023-01-21T06:37:00.637Z,-2.75
2023-01-21T06:39:27.527Z,-2.72
2023-01-21T06:41:55.437Z,-2.69
2023-01-21T06:44:27.920Z,-2.67
2023-01-21T06:47:02.231Z,-2.65
2023-01-21T06:49:29.347Z,-2.63
2023-01-21T06:51:56.638Z,-2.60
2023-01-21T06:54:23.585Z,-2.58
2023-01-21T06:56:50.334Z,-2.61
2023-01-21T06:59:17.215Z,-2.58
2023-01-21T07:01:44.137Z,-2.56
2023-01-21T07:04:11.125Z,-2.54
2023-01-21T07:06:38.838Z,-2.52
2023-01-21T07:09:07.141Z,-2.48
2023-01-21T07:11:34.812Z,-2.46
2023-01-21T07:14:01.832Z,-2.45
2023-01-21T07:16:28.748Z,-2.43
2023-01-21T07:18:58.543Z,-2.45
2023-01-21T07:21:25.844Z,-2.46
2023-01-21T07:23:53.982Z,-2.43
2023-01-21T07:26:21.166Z,-2.41
2023-01-21T07:28:51.217Z,-2.39
2023-01-21T07:31:18.103Z,-2.42
2023-01-21T07:33:47.909Z,-2.39
2023-01-21T07:36:14.843Z,-2.38
2023-01-21T07:38:41.712Z,-2.37
2023-01-21T07:41:08.587Z,-2.34
2023-01-21T07:43:35.464Z,-2.31
2023-01-21T07:46:02.389Z,-2.39
2023-01-21T07:48:29.368Z,-2.39
2023-01-21T07:51:02.670Z,-2.37
2023-01-21T07:53:29.625Z,-2.36
2023-01-21T07:55:56.533Z,-2.33
2023-01-21T07:58:27.455Z,-2.32
2023-01-21T08:00:54.255Z,-2.33
2023-01-21T08:03:23.379Z,-2.35
2023-01-21T08:05:52.206Z,-2.32
2023-01-21T08:08:19.596Z,-2.26
2023-01-21T08:10:52.653Z,-2.24
2023-01-21T08:13:19.891Z,-2.22
2023-01-21T08:15:51.288Z,-2.21
2023-01-21T08:18:19.139Z,-2.12
2023-01-21T08:20:46.067Z,-2.09
2023-01-21T08:23:12.961Z,-2.06
2023-01-21T08:25:39.980Z,-2.05
2023-01-21T08:28:06.913Z,-1.99
2023-01-21T08:30:34.078Z,-1.95
2023-01-21T08:33:01.069Z,-1.92
2023-01-21T08:35:27.966Z,-1.90
2023-01-21T08:37:57.683Z,-1.83
2023-01-21T08:40:26.558Z,-1.77
2023-01-21T08:42:59.760Z,-1.76
2023-01-21T08:45:27.661Z,-1.72
2023-01-21T08:47:55.201Z,-1.66
2023-01-21T08:50:22.432Z,-1.62
2023-01-21T08:52:56.017Z,-1.62
2023-01-21T08:55:26.919Z,-1.58
2023-01-21T08:57:54.807Z,-1.56
2023-01-21T09:00:23.817Z,-1.52
2023-01-21T09:02:51.744Z,-1.49
2023-01-21T09:05:19.739Z,-1.49
2023-01-21T09:07:47.217Z,-1.46
2023-01-21T09:10:37.392Z,-1.45
2023-01-21T09:13:08.632Z,-1.42
2023-01-21T09:15:42.985Z,-1.37
2023-01-21T09:18:10.061Z,-1.32
2023-01-21T09:20:37.949Z,-1.29
2023-01-21T09:23:24.972Z,-1.27
2023-01-21T09:26:03.971Z,-1.25
2023-01-21T09:28:33.339Z,-1.21
2023-01-21T09:31:03.891Z,-1.21
2023-01-21T09:33:35.046Z,-1.21
2023-01-21T09:36:04.253Z,-1.17
2023-01-21T09:38:31.062Z,-1.14
2023-01-21T09:41:21.993Z,-1.10
2023-01-21T09:43:57.564Z,-1.06
2023-01-21T09:46:34.916Z,-1.01
2023-01-21T09:49:04.460Z,-0.95
2023-01-21T09:51:42.888Z,-0.95
2023-01-21T09:54:19.473Z,-0.98
2023-01-21T09:57:27.461Z,-0.95
2023-01-21T10:00:08.072Z,-0.89
2023-01-21T10:03:04.668Z,-0.86
2023-01-21T10:05:37.399Z,-0.81
2023-01-21T10:08:38.232Z,-0.77
2023-01-21T10:11:32.736Z,-0.76
2023-01-21T10:14:14.709Z,-0.75
2023-01-21T10:16:48.649Z,-0.77
2023-01-21T10:19:22.734Z,-0.74
2023-01-21T10:21:54.147Z,-0.76
2023-01-21T10:24:27.312Z,-0.74
2023-01-21T10:26:57.393Z,-0.73
2023-01-21T10:29:27.040Z,-0.74
2023-01-21T10:32:01.563Z,-0.73
2023-01-21T10:34:43.787Z,-0.73
2023-01-21T10:37:43.139Z,-0.70
2023-01-21T10:40:43.398Z,-0.66
2023-01-21T10:43:18.507Z,-0.66
2023-01-21T10:46:05.557Z,-0.62
2023-01-21T10:48:54.258Z,-0.59
2023-01-21T10:51:29.841Z,-0.59
2023-01-21T10:54:19.975Z,-0.58
2023-01-21T10:56:50.795Z,-0.54
2023-01-21T10:59:23.401Z,-0.48
2023-01-21T11:02:13.951Z,-0.45
2023-01-21T11:04:42.047Z,-0.45
2023-01-21T11:07:13.004Z,-0.46
2023-01-21T11:09:43.578Z,-0.45
2023-01-21T11:12:18.876Z,-0.43
2023-01-21T11:14:58.084Z,-0.37
2023-01-21T11:17:37.945Z,-0.31
2023-01-21T11:20:16.916Z,-0.30
2023-01-21T11:22:45.745Z,-0.24
2023-01-21T11:25:36.579Z,-0.24
2023-01-21T11:28:05.314Z,-0.23
2023-01-21T11:30:51.056Z,-0.25
2023-01-21T11:33:26.722Z,-0.30
2023-01-21T11:35:55.410Z,-0.20
2023-01-21T11:38:36.034Z,-0.15
2023-01-21T11:41:11.064Z,-0.10
2023-01-21T11:43:51.227Z,0.00
2023-01-21T11:46:41.642Z,0.08
2023-01-21T11:49:08.637Z,0.05
2023-01-21T11:51:36.948Z,-0.10
2023-01-21T11:54:14.487Z,0.05
2023-01-21T11:56:54.792Z,0.23
2023-01-21T11:59:24.615Z,0.38
2023-01-21T12:02:13.555Z,0.43
2023-01-21T12:04:48.534Z,0.31
2023-01-21T12:07:25.520Z,0.26
2023-01-21T12:10:04.795Z,0.20
2023-01-21T12:12:49.125Z,0.20
2023-01-21T12:15:42.780Z,0.36
2023-01-21T12:18:24.950Z,0.48
2023-01-21T12:21:21.203Z,0.49
2023-01-21T12:24:06.437Z,0.46
2023-01-21T12:26:50.668Z,0.32
2023-01-21T12:29:49.645Z,0.25
2023-01-21T12:32:26.815Z,0.21
2023-01-21T12:34:53.923Z,0.23
2023-01-21T12:37:38.109Z,0.24
2023-01-21T12:40:37.965Z,0.21
2023-01-21T12:43:21.195Z,0.16
2023-01-21T12:46:02.519Z,0.12
2023-01-21T12:48:40.865Z,0.20
2023-01-21T12:51:15.198Z,0.25
2023-01-21T12:53:53.662Z,0.38
2023-01-21T12:56:28.798Z,0.24
2023-01-21T12:59:08.180Z,0.21
2023-01-21T13:01:56.666Z,0.21
2023-01-21T13:04:38.731Z,0.21
2023-01-21T13:07:53.891Z,0.26
2023-01-21T13:10:31.086Z,0.22
2023-01-21T13:13:15.351Z,0.34
2023-01-21T13:15:45.587Z,0.36
2023-01-21T13:18:18.839Z,0.42
2023-01-21T13:20:54.721Z,0.34
2023-01-21T13:23:42.270Z,0.35
2023-01-21T13:26:15.322Z,0.33
2023-01-21T13:28:48.455Z,0.41
2023-01-21T13:31:28.640Z,0.46
2023-01-21T13:34:04.549Z,0.51
2023-01-21T13:36:55.688Z,0.54
2023-01-21T13:39:52.169Z,0.46
2023-01-21T13:42:39.304Z,0.37
2023-01-21T13:45:43.468Z,0.31
2023-01-21T13:48:45.575Z,0.44
2023-01-21T13:51:22.421Z,0.36
2023-01-21T13:54:13.601Z,0.33
2023-01-21T13:57:08.106Z,0.32
2023-01-21T13:59:52.389Z,0.43
2023-01-21T14:02:35.897Z,0.50
2023-01-21T14:05:15.477Z,0.45
2023-01-21T14:07:51.130Z,0.44
2023-01-21T14:10:43.059Z,0.34
2023-01-21T14:14:00.238Z,0.27
2023-01-21T14:16:34.144Z,0.18
2023-01-21T14:19:28.401Z,0.17
2023-01-21T14:22:13.693Z,0.16
2023-01-21T14:24:54.627Z,0.07
2023-01-21T14:27:27.608Z,0.03
2023-01-21T14:30:01.958Z,0.01
2023-01-21T14:32:49.155Z,-0.03
2023-01-21T14:35:21.804Z,-0.02
2023-01-21T14:38:13.643Z,-0.04
2023-01-21T14:40:51.950Z,-0.11
2023-01-21T14:43:40.653Z,-0.16
2023-01-21T14:46:29.646Z,-0.17
2023-01-21T14:49:10.645Z,-0.19
2023-01-21T14:51:47.927Z,-0.18
2023-01-21T14:54:27.214Z,-0.21
2023-01-21T14:57:01.696Z,-0.23
2023-01-21T14:59:41.941Z,-0.22
2023-01-21T15:02:42.112Z,-0.22
2023-01-21T15:05:12.503Z,-0.23
2023-01-21T15:07:41.696Z,-0.23
2023-01-21T15:10:20.305Z,-0.21
2023-01-21T15:12:55.004Z,-0.24
2023-01-21T15:15:40.042Z,-0.27
2023-01-21T15:18:09.819Z,-0.33
2023-01-21T15:20:42.810Z,-0.35
2023-01-21T15:23:27.449Z,-0.39
2023-01-21T15:26:30.851Z,-0.44
2023-01-21T15:29:34.553Z,-0.44
2023-01-21T15:32:32.322Z,-0.51
2023-01-21T15:35:03.522Z,-0.53
2023-01-21T15:37:36.168Z,-0.52
2023-01-21T15:40:17.130Z,-0.53
2023-01-21T15:42:55.423Z,-0.53
2023-01-21T15:46:01.037Z,-0.52
2023-01-21T15:48:41.667Z,-0.53
2023-01-21T15:51:40.145Z,-0.61
2023-01-21T15:54:38.751Z,-0.69
2023-01-21T15:57:23.821Z,-0.79
2023-01-21T16:00:07.484Z,-0.84
2023-01-21T16:02:45.369Z,-0.83
2023-01-21T16:05:22.585Z,-0.84
2023-01-21T16:08:18.801Z,-0.91
2023-01-21T16:11:09.394Z,-0.93
2023-01-21T16:13:59.284Z,-0.95
2023-01-21T16:16:55.516Z,-0.95
2023-01-21T16:19:37.238Z,-0.98
2023-01-21T16:22:07.946Z,-0.99
2023-01-21T16:24:40.611Z,-1.02
2023-01-21T16:27:23.519Z,-1.05
2023-01-21T16:29:58.087Z,-1.09
2023-01-21T16:32:25.643Z,-1.12
2023-01-21T16:34:52.629Z,-1.16
2023-01-21T16:37:22.947Z,-1.19
2023-01-21T16:39:54.472Z,-1.19
2023-01-21T16:42:30.546Z,-1.17
2023-01-21T16:44:58.891Z,-1.16
2023-01-21T16:47:30.663Z,-1.14
2023-01-21T16:49:57.882Z,-1.17
2023-01-21T16:52:25.187Z,-1.18
2023-01-21T16:54:54.974Z,-1.23
2023-01-21T16:57:40.097Z,-1.30
2023-01-21T17:00:24.813Z,-1.33
2023-01-21T17:02:51.991Z,-1.32
2023-01-21T17:05:19.671Z,-1.34
2023-01-21T17:07:56.202Z,-1.33
2023-01-21T17:10:41.017Z,-1.28
2023-01-21T17:13:16.290Z,-1.26
2023-01-21T17:16:21.686Z,-1.28
2023-01-21T17:18:52.473Z,-1.28
2023-01-21T17:21:28.041Z,-1.29
2023-01-21T17:23:58.970Z,-1.28
2023-01-21T17:26:29.755Z,-1.29
2023-01-21T17:29:28.507Z,-1.28
2023-01-21T17:32:07.510Z,-1.28
2023-01-21T17:34:38.148Z,-1.29
2023-01-21T17:37:43.888Z,-1.25
2023-01-21T17:40:42.579Z,-1.26
2023-01-21T17:43:22.651Z,-1.27
2023-01-21T17:45:51.526Z,-1.28
2023-01-21T17:48:23.196Z,-1.29
2023-01-21T17:50:50.457Z,-1.27
2023-01-21T17:53:26.342Z,-1.27
2023-01-21T17:56:05.390Z,-1.28
2023-01-21T17:58:32.294Z,-1.27
2023-01-21T18:01:04.484Z,-1.30
2023-01-21T18:03:31.232Z,-1.36
2023-01-21T18:05:58.624Z,-1.36
2023-01-21T18:08:26.085Z,-1.37
2023-01-21T18:10:52.965Z,-1.34
2023-01-21T18:13:21.667Z,-1.38
2023-01-21T18:15:51.873Z,-1.41
2023-01-21T18:18:28.489Z,-1.43
2023-01-21T18:20:55.802Z,-1.45
2023-01-21T18:23:23.033Z,-1.45
2023-01-21T18:25:54.817Z,-1.50
2023-01-21T18:28:24.485Z,-1.50
2023-01-21T18:30:54.462Z,-1.54
2023-01-21T18:33:22.300Z,-1.55
2023-01-21T18:35:51.031Z,-1.57
2023-01-21T18:38:32.600Z,-1.53
2023-01-21T18:41:00.459Z,-1.53
2023-01-21T18:43:27.402Z,-1.53
2023-01-21T18:45:54.860Z,-1.56
2023-01-21T18:48:27.877Z,-1.56
2023-01-21T18:50:54.892Z,-1.51
2023-01-21T18:53:22.194Z,-1.52
2023-01-21T18:55:53.809Z,-1.55
2023-01-21T18:58:21.044Z,-1.55
2023-01-21T19:00:48.709Z,-1.57
2023-01-21T19:03:16.197Z,-1.59
2023-01-21T19:05:47.793Z,-1.63
2023-01-21T19:08:22.060Z,-1.62
2023-01-21T19:10:48.953Z,-1.63
2023-01-21T19:13:15.917Z,-1.65
2023-01-21T19:15:43.234Z,-1.68
2023-01-21T19:18:11.954Z,-1.71
2023-01-21T19:20:42.025Z,-1.71
2023-01-21T19:23:17.931Z,-1.72
2023-01-21T19:25:57.774Z,-1.74
2023-01-21T19:28:25.324Z,-1.71
2023-01-21T19:30:55.726Z,-1.71
2023-01-21T19:33:23.485Z,-1.71
2023-01-21T19:35:56.119Z,-1.81
2023-01-21T19:38:23.856Z,-1.84
2023-01-21T19:40:50.958Z,-1.85
2023-01-21T19:43:22.964Z,-1.86
2023-01-21T19:45:51.968Z,-1.89
2023-01-21T19:48:21.159Z,-1.87
2023-01-21T19:50:48.500Z,-1.90
2023-01-21T19:53:17.596Z,-1.92
2023-01-21T19:55:46.518Z,-1.96
2023-01-21T19:58:20.195Z,-1.97
2023-01-21T20:00:49.527Z,-1.96
2023-01-21T20:03:18.690Z,-1.92
2023-01-21T20:05:48.124Z,-1.95
2023-01-21T20:08:22.096Z,-2.04
2023-01-21T20:10:49.097Z,-2.02
2023-01-21T20:13:16.735Z,-1.99
2023-01-21T20:15:45.568Z,-2.03
2023-01-21T20:18:22.888Z,-2.02
2023-01-21T20:20:49.990Z,-1.97
2023-01-21T20:23:17.751Z,-1.94
2023-01-21T20:25:47.374Z,-1.95
2023-01-21T20:28:20.967Z,-2.02
2023-01-21T20:30:49.546Z,-2.05
2023-01-21T20:33:19.191Z,-2.09
2023-01-21T20:35:56.899Z,-2.13
2023-01-21T20:38:30.324Z,-2.09
2023-01-21T20:40:58.225Z,-2.13
2023-01-21T20:43:25.270Z,-2.11
2023-01-21T20:45:53.413Z,-2.13
2023-01-21T20:48:25.787Z,-2.14
2023-01-21T20:50:53.241Z,-2.13
2023-01-21T20:53:20.489Z,-2.11
2023-01-21T20:55:50.907Z,-2.13
2023-01-21T20:58:22.075Z,-2.14
2023-01-21T21:00:49.551Z,-2.17
2023-01-21T21:03:18.364Z,-2.15
2023-01-21T21:05:49.456Z,-2.16
2023-01-21T21:08:21.157Z,-2.15
2023-01-21T21:10:50.975Z,-2.14
2023-01-21T21:13:18.018Z,-2.14
2023-01-21T21:15:46.623Z,-2.15
2023-01-21T21:18:14.717Z,-2.17
2023-01-21T21:20:41.972Z,-2.17
2023-01-21T21:23:14.143Z,-2.20
2023-01-21T21:25:43.803Z,-2.25
2023-01-21T21:28:17.392Z,-2.25
2023-01-21T21:30:45.226Z,-2.26
2023-01-21T21:33:22.537Z,-2.28
2023-01-21T21:35:50.010Z,-2.30
2023-01-21T21:38:21.963Z,-2.31
2023-01-21T21:40:53.226Z,-2.31
2023-01-21T21:43:33.561Z,-2.34
2023-01-21T21:46:30.627Z,-2.40
2023-01-21T21:48:57.561Z,-2.45
2023-01-21T21:51:24.557Z,-2.47
2023-01-21T21:53:51.662Z,-2.48
2023-01-21T21:56:23.792Z,-2.49
2023-01-21T21:58:51.445Z,-2.48
2023-01-21T22:01:23.844Z,-2.48
2023-01-21T22:03:51.188Z,-2.47
2023-01-21T22:06:20.179Z,-2.46
2023-01-21T22:08:48.221Z,-2.46
2023-01-21T22:11:19.671Z,-2.48
2023-01-21T22:17:49.598Z,-2.50
2023-01-21T22:20:16.527Z,-2.48
2023-01-21T22:22:43.413Z,-2.52
2023-01-21T22:25:17.081Z,-2.53
2023-01-21T22:27:45.554Z,-2.54
2023-01-21T22:30:12.999Z,-2.53
2023-01-21T22:32:48.445Z,-2.55
2023-01-21T22:35:15.857Z,-2.57
2023-01-21T22:37:48.881Z,-2.57
2023-01-21T22:40:19.458Z,-2.56
2023-01-21T22:43:03.112Z,-2.58
2023-01-21T22:45:33.144Z,-2.59
2023-01-21T22:48:30.007Z,-2.58
2023-01-21T22:51:04.519Z,-2.62
2023-01-21T22:53:34.981Z,-2.64
2023-01-21T22:56:04.512Z,-2.67
2023-01-21T22:58:56.407Z,-2.71
2023-01-21T23:01:57.826Z,-2.72
2023-01-21T23:04:41.062Z,-2.77
2023-01-21T23:07:10.312Z,-2.78
2023-01-21T23:09:39.306Z,-2.81
2023-01-21T23:12:08.833Z,-2.82
2023-01-21T23:14:35.693Z,-2.84
2023-01-21T23:17:03.218Z,-2.85
2023-01-21T23:19:30.069Z,-2.88
2023-01-21T23:21:56.830Z,-2.91
2023-01-21T23:24:23.856Z,-2.90
2023-01-21T23:26:50.720Z,-2.91
2023-01-21T23:29:17.496Z,-2.93
2023-01-21T23:31:44.437Z,-2.95
2023-01-21T23:34:14.600Z,-2.95
2023-01-21T23:36:41.547Z,-2.97
2023-01-21T23:39:08.352Z,-2.98
2023-01-21T23:41:35.197Z,-3.00
2023-01-21T23:44:02.024Z,-2.96
2023-01-21T23:46:29.021Z,-2.93
2023-01-21T23:48:55.908Z,-2.90
2023-01-21T23:51:22.805Z,-2.85
2023-01-21T23:53:49.820Z,-2.83
2023-01-21T23:56:20.776Z,-2.76
2023-01-21T23:58:48.486Z,-2.72
